Flugplatz gelöscht (UL)

Hier findest Du alle Informationen zum Flugplatz gelöscht (UL).

Informationen für Piloten zum Flugplatz gelöscht

Hier findest Du alle relevanten Informationen, die Du als Pilot benötigst, um gelöscht anzufliegen.

Flugplatz: gelöscht ICAO-Code: UL Flugplatz
Frequenz Turm: 120.975 Mhz GAFOR Gebiet: -
Frequenz Ground: 120.975 Mhz Mogas: ja
Platzrunde: NW 2500 ft Landegebühr: 3 €
Platzhöhe: - Sunrise: 04:04 Uhr UTC
Pisten: 04/22 - 400 m x 20 m, GRAS Sunset: 18:27 Uhr UTC

Mitglieder, die in gelöscht fliegen

Flugwetter am Flugplatz gelöscht

Die METAR Information stammen aus EDDE (53.26 km entfernt).

METAR Code:
2024/04/22 17:20
EDDE 221720Z AUTO 08007KT 050V110 CAVOK 05/M05 Q1021 NOSIG

Flugschulen am Flugplatz gelöscht

Am Flugplatz gelöscht gibt es leider keine Flugschule.

Benachbarte Flugplätze und Flugschulen

Es gibt 13 weitere Flugplätze in einem Umkreis von 50 km um den Flugplatz gelöscht.

Jetzt anmelden

Passwort vergessen

Umfrage Archiv

Wie häufig haltet Ihr die Halbkreisflugregel ein?

Eher häufig!
34.5 %
Immer!
32.4 %
Hin und wieder!
16.4 %
Nie!
9.2 %
Eher selten!
7.6 %
Stimmen: 238 | Diskussion
Anzeige: Roland Aircraft
Statistik Alle Mitglieder

Aktuell sind 17 Besucher online, davon 1 Mitglied und 16 Gäste.


Mitglieder online:
Heli 

Anzeige: EasyVFR